Time;durP1;ratioP1;P1;durP2;ratioP2;P2;SDS_P1;SDS_P2;PMS_P1;PMS_P2;Temp;Humidity;BMP_temperature;BMP_pressure;BME280_temperature;BME280_humidity;BME280_pressure;Samples;Min_cycle;Max_cycle;Signal;HPM_P1;HPM_P2
2022/08/13 00:00:00;;;;;;;;;;;;;;;24.04;40.69;101820.09;5047459;28;19924;-57
2022/08/13 00:02:26;;;;;;;;;;;;;;;24.00;40.81;101817.88;5046493;28;20299;-57
2022/08/13 00:05:00;;;;;;;;;;;;;;;23.96;40.91;101820.00;5041572;28;20308;-60
2022/08/13 00:07:26;;;;;;;;;;;;;;;23.92;41.12;101821.28;5040711;28;21703;-58
2022/08/13 00:09:52;;;;;;;;;;;;;;;23.89;41.13;101816.19;5044766;28;19928;-59
2022/08/13 00:15:14;;;;;;;;;;;;;;;23.80;40.94;101814.41;5023905;28;20425;-58
2022/08/13 00:17:40;;;;;;;;;;;;;;;23.74;41.26;101813.19;5046293;28;19917;-57
2022/08/13 00:20:06;;;;;;;;;;;;;;;23.71;41.13;101814.31;5048239;28;19967;-57
2022/08/13 00:22:32;;;;;;;;;;;;;;;23.70;41.14;101815.28;5043090;28;19921;-56
2022/08/13 00:25:00;;;;;;;;;;;;;;;23.70;41.37;101807.22;5044294;28;19920;-60
2022/08/13 00:27:26;;;;;;;;;;;;;;;23.70;41.24;101801.84;5041679;28;19932;-57
2022/08/13 00:29:56;;;;;;;;;;;;;;;23.70;41.32;101807.22;5049753;28;19929;-57
2022/08/13 00:32:26;;;;;;;;;;;;;;;23.68;41.27;101803.84;5041726;28;19982;-56
2022/08/13 00:34:51;;;;;;;;;;;;;;;23.66;41.27;101811.25;5041566;28;19928;-57
2022/08/13 00:37:17;;;;;;;;;;;;;;;23.64;41.44;101807.84;5042963;28;20266;-57
2022/08/13 00:39:42;;;;;;;;;;;;;;;23.64;41.28;101805.16;5047677;28;19924;-57
2022/08/13 00:42:08;;;;;;;;;;;;;;;23.65;41.63;101798.78;5046589;28;20016;-58
2022/08/13 00:44:33;;;;;;;;;;;;;;;23.63;41.48;101803.47;5048342;28;19924;-60
2022/08/13 00:49:46;;;;;;;;;;;;;;;23.58;41.69;101803.06;5051712;28;20340;-61
2022/08/13 00:52:11;;;;;;;;;;;;;;;23.55;41.89;101797.97;5051477;28;20387;-61
2022/08/13 00:54:36;;;;;;;;;;;;;;;23.54;41.77;101807.03;5046624;28;19921;-57
2022/08/13 00:57:07;;;;;;;;;;;;;;;23.56;41.74;101799.66;5030716;28;20006;-59
2022/08/13 00:59:33;;;;;;;;;;;;;;;23.58;41.97;101806.59;5038974;28;19970;-55
2022/08/13 01:01:58;;;;;;;;;;;;;;;23.57;41.95;101804.06;5038447;28;19963;-57
2022/08/13 01:04:25;;;;;;;;;;;;;;;23.59;41.79;101802.06;5042018;28;20007;-61
2022/08/13 01:06:50;;;;;;;;;;;;;;;23.58;42.09;101798.56;5046727;28;20395;-55
2022/08/13 01:09:16;;;;;;;;;;;;;;;23.56;42.10;101800.53;5052752;28;20007;-54
2022/08/13 01:11:43;;;;;;;;;;;;;;;23.57;41.77;101796.84;5043596;28;19944;-58
2022/08/13 01:14:08;;;;;;;;;;;;;;;23.57;41.75;101787.94;5038887;28;19920;-55
2022/08/13 01:16:36;;;;;;;;;;;;;;;23.59;41.88;101783.25;5040316;28;19920;-58
2022/08/13 01:19:03;;;;;;;;;;;;;;;23.60;42.14;101784.97;5038464;28;19995;-56
2022/08/13 01:21:32;;;;;;;;;;;;;;;23.60;42.08;101775.03;5041916;28;19925;-56
2022/08/13 01:23:57;;;;;;;;;;;;;;;23.60;41.96;101780.41;5039423;28;19932;-61
2022/08/13 01:26:23;;;;;;;;;;;;;;;23.60;41.99;101782.28;5041888;28;20296;-61
2022/08/13 01:28:50;;;;;;;;;;;;;;;23.60;41.99;101779.59;5040124;28;20399;-61
2022/08/13 01:31:16;;;;;;;;;;;;;;;23.57;42.05;101779.88;5040772;28;19929;-60
2022/08/13 01:33:43;;;;;;;;;;;;;;;23.54;42.12;101781.03;5040327;28;19928;-56
2022/08/13 01:36:09;;;;;;;;;;;;;;;23.53;42.17;101783.84;5039437;28;19931;-59
2022/08/13 01:38:36;;;;;;;;;;;;;;;23.51;42.28;101775.94;5024196;28;20786;-55
2022/08/13 01:41:04;;;;;;;;;;;;;;;23.48;42.28;101775.41;5043776;28;20394;-58
2022/08/13 01:43:30;;;;;;;;;;;;;;;23.43;42.30;101782.06;5038789;28;19923;-58
2022/08/13 01:45:57;;;;;;;;;;;;;;;23.38;42.24;101787.03;5040783;28;20287;-59
2022/08/13 01:51:08;;;;;;;;;;;;;;;23.33;42.69;101781.28;5037759;28;19928;-59
2022/08/13 01:53:33;;;;;;;;;;;;;;;23.31;42.75;101788.63;5037623;28;19974;-57
2022/08/13 01:56:00;;;;;;;;;;;;;;;23.30;42.70;101786.94;5036934;28;19925;-55
2022/08/13 01:58:28;;;;;;;;;;;;;;;23.29;42.57;101787.91;5042368;28;19925;-58
2022/08/13 02:00:57;;;;;;;;;;;;;;;23.29;42.97;101787.91;5032069;28;19975;-58
2022/08/13 02:03:23;;;;;;;;;;;;;;;23.26;42.85;101785.53;5038549;28;19916;-57
2022/08/13 02:05:48;;;;;;;;;;;;;;;23.25;42.72;101789.19;5042587;28;19920;-57
2022/08/13 02:08:18;;;;;;;;;;;;;;;23.24;42.97;101780.31;5050746;28;19928;-60
2022/08/13 02:10:44;;;;;;;;;;;;;;;23.24;42.99;101784.81;5047672;28;19928;-59
2022/08/13 02:13:13;;;;;;;;;;;;;;;23.22;43.07;101776.94;5046735;28;20380;-59
2022/08/13 02:15:39;;;;;;;;;;;;;;;23.17;43.01;101776.47;5047573;28;19917;-57
2022/08/13 02:18:04;;;;;;;;;;;;;;;23.12;43.10;101768.88;5039044;28;19925;-57
2022/08/13 02:20:31;;;;;;;;;;;;;;;23.08;43.30;101775.50;5046929;28;19923;-56
2022/08/13 02:22:56;;;;;;;;;;;;;;;23.02;43.33;101776.13;5043407;28;19917;-56
2022/08/13 02:25:23;;;;;;;;;;;;;;;23.01;43.34;101781.59;5045732;28;20378;-55
2022/08/13 02:27:48;;;;;;;;;;;;;;;22.98;43.69;101774.72;5039759;28;19921;-56
2022/08/13 02:30:16;;;;;;;;;;;;;;;22.96;43.58;101777.53;5039149;28;20291;-57
2022/08/13 02:32:42;;;;;;;;;;;;;;;22.95;43.63;101766.94;5036273;28;19999;-56
2022/08/13 02:35:08;;;;;;;;;;;;;;;22.93;43.51;101771.59;5039671;28;19983;-57
2022/08/13 02:37:34;;;;;;;;;;;;;;;22.90;43.54;101766.56;5044917;28;20277;-55
2022/08/13 02:40:01;;;;;;;;;;;;;;;22.86;43.76;101765.13;5043223;28;20403;-56
2022/08/13 02:42:28;;;;;;;;;;;;;;;22.81;44.01;101761.03;5045200;28;20364;-56
2022/08/13 02:44:54;;;;;;;;;;;;;;;22.79;43.94;101754.13;5040445;28;19925;-57
2022/08/13 02:47:20;;;;;;;;;;;;;;;22.77;43.93;101762.31;5039238;28;19971;-61
2022/08/13 02:49:48;;;;;;;;;;;;;;;22.74;44.17;101751.91;5051215;28;19974;-57
2022/08/13 02:52:14;;;;;;;;;;;;;;;22.73;44.21;101758.25;5036883;28;19983;-56
2022/08/13 02:54:42;;;;;;;;;;;;;;;22.72;44.12;101759.25;5037449;28;19924;-58
2022/08/13 02:57:08;;;;;;;;;;;;;;;22.72;44.09;101759.25;5041200;28;20011;-58
2022/08/13 02:59:33;;;;;;;;;;;;;;;22.71;44.41;101760.22;5041107;28;21567;-60
2022/08/13 03:02:00;;;;;;;;;;;;;;;22.73;44.04;101760.06;5040410;28;19958;-57
2022/08/13 03:04:25;;;;;;;;;;;;;;;22.71;44.47;101757.53;5029904;28;21037;-57
2022/08/13 03:06:51;;;;;;;;;;;;;;;22.72;44.13;101759.25;5045539;28;20388;-57
2022/08/13 03:09:19;;;;;;;;;;;;;;;22.72;44.28;101759.25;5035187;28;19932;-57
2022/08/13 03:11:44;;;;;;;;;;;;;;;22.71;44.52;101754.88;5044479;28;19927;-58
2022/08/13 03:14:11;;;;;;;;;;;;;;;22.70;44.64;101750.50;5038786;28;19921;-57
2022/08/13 03:16:39;;;;;;;;;;;;;;;22.69;44.46;101754.16;5041646;28;19932;-59
2022/08/13 03:19:05;;;;;;;;;;;;;;;22.71;44.44;101749.50;5046444;28;20370;-59
2022/08/13 03:21:32;;;;;;;;;;;;;;;22.69;44.81;101748.78;5043194;28;20391;-60
2022/08/13 03:23:58;;;;;;;;;;;;;;;22.70;44.44;101747.81;5044706;28;19947;-60
2022/08/13 03:26:24;;;;;;;;;;;;;;;22.68;44.38;101741.72;5049123;28;19924;-58
2022/08/13 03:28:54;;;;;;;;;;;;;;;22.66;44.73;101749.06;5040479;28;19967;-58
2022/08/13 03:31:20;;;;;;;;;;;;;;;22.64;44.72;101743.88;5035285;28;20077;-57
2022/08/13 03:33:45;;;;;;;;;;;;;;;22.64;44.91;101745.69;5038506;28;20395;-58
2022/08/13 03:36:11;;;;;;;;;;;;;;;22.60;44.64;101744.31;5037356;28;20443;-58
2022/08/13 03:38:36;;;;;;;;;;;;;;;22.57;44.95;101739.22;5040073;28;19935;-55
2022/08/13 03:41:03;;;;;;;;;;;;;;;22.55;44.81;101733.16;5037395;28;20303;-57
2022/08/13 03:43:30;;;;;;;;;;;;;;;22.56;45.10;101737.53;5040248;28;19932;-58
2022/08/13 03:45:57;;;;;;;;;;;;;;;22.57;45.14;101733.84;5027008;28;19921;-59
2022/08/13 03:48:23;;;;;;;;;;;;;;;22.56;45.07;101737.53;5039018;28;20917;-58
2022/08/13 03:50:49;;;;;;;;;;;;;;;22.57;45.02;101744.59;5042089;28;19928;-58
2022/08/13 03:53:17;;;;;;;;;;;;;;;22.59;45.02;101737.25;5050400;28;19921;-59
2022/08/13 03:55:43;;;;;;;;;;;;;;;22.63;44.98;101733.25;5043129;28;19925;-61
2022/08/13 03:58:10;;;;;;;;;;;;;;;22.64;44.95;101734.94;5024456;28;19916;-58
2022/08/13 04:00:37;;;;;;;;;;;;;;;22.64;45.17;101734.94;5041697;28;19965;-57
2022/08/13 04:03:13;;;;;;;;;;;;;;;22.63;45.21;101733.25;5041073;28;20561;-56
2022/08/13 04:05:39;;;;;;;;;;;;;;;22.64;45.27;101729.59;5048519;28;19925;-56
2022/08/13 04:08:05;;;;;;;;;;;;;;;22.65;45.38;101733.97;5045972;28;20011;-57
2022/08/13 04:10:30;;;;;;;;;;;;;;;22.64;45.29;101734.94;5040225;28;19921;-60
2022/08/13 04:12:55;;;;;;;;;;;;;;;22.66;45.25;101730.28;5023162;28;19935;-57
2022/08/13 04:15:21;;;;;;;;;;;;;;;22.67;45.29;101729.31;5047336;28;20403;-59
2022/08/13 04:17:46;;;;;;;;;;;;;;;22.67;45.52;101732.00;5044092;28;19975;-59
2022/08/13 04:20:12;;;;;;;;;;;;;;;22.69;45.43;101732.69;5046488;28;19976;-56
2022/08/13 04:22:38;;;;;;;;;;;;;;;22.73;45.44;101728.75;5040446;28;19924;-55
2022/08/13 04:25:04;;;;;;;;;;;;;;;22.76;45.53;101725.78;5043256;28;20042;-59
2022/08/13 04:27:32;;;;;;;;;;;;;;;22.79;45.58;101732.69;5046760;28;19932;-58
2022/08/13 04:29:58;;;;;;;;;;;;;;;22.81;45.27;101733.38;5042897;28;19929;-57
2022/08/13 04:32:24;;;;;;;;;;;;;;;22.82;45.40;101735.06;5038315;28;20165;-62
2022/08/13 04:34:49;;;;;;;;;;;;;;;22.82;45.29;101727.84;5045498;28;20000;-58
2022/08/13 04:37:14;;;;;;;;;;;;;;;22.84;45.49;101730.38;5043996;28;19931;-57
2022/08/13 04:39:40;;;;;;;;;;;;;;;22.82;45.61;101738.59;5049449;28;19920;-60
2022/08/13 04:42:07;;;;;;;;;;;;;;;22.83;45.84;101734.91;5043312;28;19928;-56
2022/08/13 04:44:33;;;;;;;;;;;;;;;22.82;45.75;101730.53;5040936;28;19928;-59
2022/08/13 04:46:59;;;;;;;;;;;;;;;22.83;45.62;101739.44;5048612;28;19921;-62
2022/08/13 04:49:24;;;;;;;;;;;;;;;22.84;45.93;101739.28;5049355;28;20019;-57
2022/08/13 04:51:49;;;;;;;;;;;;;;;22.89;45.79;101738.03;5045856;28;19969;-60
2022/08/13 04:54:15;;;;;;;;;;;;;;;22.90;45.91;101734.34;5044731;28;19921;-54
2022/08/13 04:56:40;;;;;;;;;;;;;;;22.89;45.77;101733.50;5041859;28;19923;-55
2022/08/13 04:59:06;;;;;;;;;;;;;;;22.89;46.08;101733.50;5045138;28;19928;-57
2022/08/13 05:01:31;;;;;;;;;;;;;;;22.90;45.83;101735.19;5041559;28;20049;-57
2022/08/13 05:03:57;;;;;;;;;;;;;;;22.91;45.74;101733.38;5040656;28;22053;-61
2022/08/13 05:06:22;;;;;;;;;;;;;;;22.91;45.88;101741.41;5039559;28;19932;-56
2022/08/13 05:08:48;;;;;;;;;;;;;;;22.91;45.92;101731.50;5047142;28;19970;-57
2022/08/13 05:11:14;;;;;;;;;;;;;;;22.92;45.89;101732.34;5023316;28;19928;-57
2022/08/13 05:13:40;;;;;;;;;;;;;;;22.92;45.75;101729.66;5049632;28;19929;-56
2022/08/13 05:16:07;;;;;;;;;;;;;;;22.93;45.92;101723.31;5050584;28;20513;-58
2022/08/13 05:18:34;;;;;;;;;;;;;;;22.92;46.18;101721.59;5044241;28;19925;-59
2022/08/13 05:21:01;;;;;;;;;;;;;;;22.95;45.95;101726.69;5038617;28;19916;-56
2022/08/13 05:23:27;;;;;;;;;;;;;;;22.96;46.01;101721.19;5046876;28;19924;-58
2022/08/13 05:25:52;;;;;;;;;;;;;;;22.97;45.93;101720.19;5041665;28;19925;-55
2022/08/13 05:28:18;;;;;;;;;;;;;;;22.99;46.12;101722.72;5044390;28;19929;-58
2022/08/13 05:30:44;;;;;;;;;;;;;;;23.00;45.86;101724.41;5042345;28;19916;-61
2022/08/13 05:33:16;;;;;;;;;;;;;;;23.00;45.86;101724.41;5046173;28;19924;-59
2022/08/13 05:35:46;;;;;;;;;;;;;;;23.01;46.14;101709.16;5046750;28;19924;-58
2022/08/13 05:38:11;;;;;;;;;;;;;;;23.04;45.79;101708.84;5046244;28;19925;-58
2022/08/13 05:40:38;;;;;;;;;;;;;;;23.05;45.96;101706.03;5049521;28;19962;-61
2022/08/13 05:43:15;;;;;;;;;;;;;;;23.09;46.16;101701.22;5022289;28;19921;-56
2022/08/13 05:45:47;;;;;;;;;;;;;;;23.12;45.98;101707.13;5022659;28;19916;-58
2022/08/13 05:48:12;;;;;;;;;;;;;;;23.17;45.89;101704.00;5041706;28;19989;-56
2022/08/13 05:50:38;;;;;;;;;;;;;;;23.20;45.80;101700.19;5044330;28;20679;-57
2022/08/13 05:53:08;;;;;;;;;;;;;;;23.23;45.91;101691.84;5045276;28;19921;-58
2022/08/13 05:55:33;;;;;;;;;;;;;;;23.25;45.89;101701.47;5047237;28;19924;-56
2022/08/13 05:57:59;;;;;;;;;;;;;;;23.27;45.90;101695.94;5043021;28;19917;-58
2022/08/13 06:03:27;;;;;;;;;;;;;;;23.29;46.11;101689.41;5038271;28;20859;-54
2022/08/13 06:05:54;;;;;;;;;;;;;;;23.29;46.00;101691.25;5034568;28;20010;-54
2022/08/13 06:08:27;;;;;;;;;;;;;;;23.30;46.02;101698.31;5038759;28;20048;-58
2022/08/13 06:10:52;;;;;;;;;;;;;;;23.32;45.99;101700.84;5043056;28;19939;-53
2022/08/13 06:13:18;;;;;;;;;;;;;;;23.32;45.96;101693.66;5038438;28;20364;-58
2022/08/13 06:15:44;;;;;;;;;;;;;;;23.31;46.20;101705.38;5032964;28;21771;-58
2022/08/13 06:18:12;;;;;;;;;;;;;;;23.32;46.12;101707.06;5039056;28;19916;-56
2022/08/13 06:20:40;;;;;;;;;;;;;;;23.35;46.17;101711.28;5024267;28;19993;-58
2022/08/13 06:23:06;;;;;;;;;;;;;;;23.39;46.42;101701.94;5040299;28;19974;-60
2022/08/13 06:25:32;;;;;;;;;;;;;;;23.42;46.26;101707.84;5044416;28;19923;-56
2022/08/13 06:28:00;;;;;;;;;;;;;;;23.47;46.39;101710.09;5024696;28;19921;-57
2022/08/13 06:30:30;;;;;;;;;;;;;;;23.50;46.24;101709.78;5047502;28;19934;-60
2022/08/13 06:33:02;;;;;;;;;;;;;;;23.56;46.33;101713.72;5045328;28;19925;-59
2022/08/13 06:35:28;;;;;;;;;;;;;;;23.60;46.06;101717.81;5037430;28;19932;-58
2022/08/13 06:37:54;;;;;;;;;;;;;;;23.63;46.28;101714.81;5045435;28;19921;-60
2022/08/13 06:40:21;;;;;;;;;;;;;;;23.65;46.15;101717.34;5045326;28;19982;-57
2022/08/13 06:42:47;;;;;;;;;;;;;;;23.67;46.31;101721.56;5039636;28;19917;-57
2022/08/13 06:45:13;;;;;;;;;;;;;;;23.69;46.18;101724.94;5046751;28;19974;-58
2022/08/13 06:47:38;;;;;;;;;;;;;;;23.71;46.13;101720.25;5042069;28;19925;-57
2022/08/13 06:50:09;;;;;;;;;;;;;;;23.74;46.09;101722.66;5044633;28;21145;-58
2022/08/13 06:52:35;;;;;;;;;;;;;;;23.77;46.24;101720.66;5047342;28;19998;-56
2022/08/13 06:55:00;;;;;;;;;;;;;;;23.79;46.17;101724.06;5042346;28;19924;-57
2022/08/13 06:57:26;;;;;;;;;;;;;;;23.81;46.27;101716.69;5034248;28;19927;-57
2022/08/13 06:59:57;;;;;;;;;;;;;;;23.82;45.98;101718.38;5042964;28;19965;-58
2022/08/13 07:02:24;;;;;;;;;;;;;;;23.84;46.24;101721.72;5034775;28;20624;-57
2022/08/13 07:04:49;;;;;;;;;;;;;;;23.86;46.15;101720.59;5031039;28;21171;-57
2022/08/13 07:07:17;;;;;;;;;;;;;;;23.91;46.32;101725.50;5033868;28;19925;-59
2022/08/13 07:09:44;;;;;;;;;;;;;;;23.94;46.26;101727.91;5032853;28;20962;-58
2022/08/13 07:12:12;;;;;;;;;;;;;;;23.98;46.05;101731.16;5029414;28;19927;-54
2022/08/13 07:14:40;;;;;;;;;;;;;;;23.99;46.21;101722.91;5035336;28;20007;-57
2022/08/13 07:17:06;;;;;;;;;;;;;;;24.04;46.02;101731.38;5047853;28;20383;-58
2022/08/13 07:19:33;;;;;;;;;;;;;;;24.07;46.08;101726.69;5035748;28;19935;-56
2022/08/13 07:21:58;;;;;;;;;;;;;;;24.11;45.96;101715.47;5040931;28;19925;-55
2022/08/13 07:24:25;;;;;;;;;;;;;;;24.17;46.03;101722.06;5042294;28;19950;-57
2022/08/13 07:26:51;;;;;;;;;;;;;;;24.20;45.90;101719.91;5026188;28;20889;-57
2022/08/13 07:29:18;;;;;;;;;;;;;;;24.26;46.07;101717.59;5040814;28;19933;-56
2022/08/13 07:31:43;;;;;;;;;;;;;;;24.29;45.85;101720.81;5037319;28;19920;-57
2022/08/13 07:34:09;;;;;;;;;;;;;;;24.32;45.81;101715.16;5044909;28;19924;-57
2022/08/13 07:36:36;;;;;;;;;;;;;;;24.36;45.86;101715.66;5042382;28;19947;-57
2022/08/13 07:39:09;;;;;;;;;;;;;;;24.40;45.99;101711.66;5036224;28;19920;-59
2022/08/13 07:41:40;;;;;;;;;;;;;;;24.44;45.88;101709.50;5040251;28;19929;-57
2022/08/13 07:44:07;;;;;;;;;;;;;;;24.47;45.72;101714.56;5035568;28;19998;-58
2022/08/13 07:46:45;;;;;;;;;;;;;;;24.50;45.79;101711.56;5041580;28;19929;-57
2022/08/13 07:49:12;;;;;;;;;;;;;;;24.53;45.83;101713.97;5035626;28;20004;-58
2022/08/13 07:51:37;;;;;;;;;;;;;;;24.57;45.96;101718.03;5038386;28;19917;-62
2022/08/13 07:54:05;;;;;;;;;;;;;;;24.60;45.63;101712.31;5042462;28;19920;-62
2022/08/13 07:56:31;;;;;;;;;;;;;;;24.63;45.74;101703.94;5044324;28;19952;-63
2022/08/13 07:59:00;;;;;;;;;;;;;;;24.66;45.64;101711.69;5041801;28;19956;-62
2022/08/13 08:01:27;;;;;;;;;;;;;;;24.70;45.72;101714.09;5037590;28;19924;-60
2022/08/13 08:03:54;;;;;;;;;;;;;;;24.73;45.75;101703.03;5039761;28;20015;-61
2022/08/13 08:06:20;;;;;;;;;;;;;;;24.78;45.76;101706.94;5027685;28;20020;-64
2022/08/13 08:08:46;;;;;;;;;;;;;;;24.84;45.88;101713.53;5038378;28;20017;-56
2022/08/13 08:12:32;;;;;;;;;;;;;;;24.89;45.68;101713.88;5049969;28;20008;-57
2022/08/13 08:14:00;;;;;;;;;;;;;;;24.98;45.66;101724.69;5059427;28;20053;-60
2022/08/13 08:16:30;;;;;;;;;;;;;;;25.06;45.48;101711.25;5050441;28;20004;-60
2022/08/13 08:18:56;;;;;;;;;;;;;;;25.14;45.51;101721.22;5038986;28;19932;-58
2022/08/13 08:21:24;;;;;;;;;;;;;;;25.22;45.32;101715.88;5041813;28;19925;-54
2022/08/13 08:23:51;;;;;;;;;;;;;;;25.27;45.55;101714.38;5047469;28;20379;-57
2022/08/13 08:26:17;;;;;;;;;;;;;;;25.33;45.12;101714.75;5041406;28;19917;-58
2022/08/13 08:28:43;;;;;;;;;;;;;;;25.37;45.31;101713.41;5043037;28;19921;-62
2022/08/13 08:31:11;;;;;;;;;;;;;;;25.39;45.01;101709.56;5040186;28;19917;-61
2022/08/13 08:33:38;;;;;;;;;;;;;;;25.44;45.07;101716.31;5048466;28;19932;-61
2022/08/13 08:36:03;;;;;;;;;;;;;;;25.48;45.03;101709.59;5045139;28;19920;-61
2022/08/13 08:44:00;;;;;;;;;;;;;;;25.64;45.02;101709.66;5040977;28;19927;-62
2022/08/13 08:46:27;;;;;;;;;;;;;;;25.70;44.84;101710.84;5037584;28;19917;-60
2022/08/13 08:48:54;;;;;;;;;;;;;;;25.74;44.87;101706.81;5044376;28;20645;-63
2022/08/13 08:51:20;;;;;;;;;;;;;;;25.78;44.55;101716.25;5044928;28;19913;-62
2022/08/13 08:53:47;;;;;;;;;;;;;;;25.82;44.81;101714.91;5041841;28;19920;-59
2022/08/13 08:56:15;;;;;;;;;;;;;;;25.85;44.64;101711.88;5040130;28;19966;-61
2022/08/13 08:58:41;;;;;;;;;;;;;;;25.90;44.80;101715.94;5036134;28;19923;-59
2022/08/13 09:01:13;;;;;;;;;;;;;;;25.92;44.77;101712.03;5035283;28;19921;-63
2022/08/13 09:03:46;;;;;;;;;;;;;;;25.94;44.72;101720.00;5029970;28;19978;-57
2022/08/13 09:06:11;;;;;;;;;;;;;;;25.95;44.84;101716.25;5045104;28;19967;-59
2022/08/13 09:08:38;;;;;;;;;;;;;;;25.96;44.75;101712.53;5051497;28;19925;-60
2022/08/13 09:11:03;;;;;;;;;;;;;;;25.97;45.02;101716.94;5049103;28;19921;-62
2022/08/13 09:13:29;;;;;;;;;;;;;;;25.99;44.89;101717.63;5047033;28;20280;-58
2022/08/13 09:15:57;;;;;;;;;;;;;;;25.99;44.92;101713.06;5054630;28;20016;-59
2022/08/13 09:18:23;;;;;;;;;;;;;;;26.01;44.87;101713.75;5052649;28;19920;-59
2022/08/13 09:20:49;;;;;;;;;;;;;;;26.04;44.96;101715.28;5043247;28;19917;-61
2022/08/13 09:23:16;;;;;;;;;;;;;;;26.07;45.11;101716.78;5044366;28;19951;-61
2022/08/13 09:25:48;;;;;;;;;;;;;;;26.10;45.16;101716.44;5050452;28;19916;-58
2022/08/13 09:28:17;;;;;;;;;;;;;;;26.13;45.14;101719.69;5047772;28;20288;-61
2022/08/13 09:30:45;;;;;;;;;;;;;;;26.17;45.15;101721.03;5042242;28;19921;-58
2022/08/13 09:33:12;;;;;;;;;;;;;;;26.22;45.22;101703.50;5050287;28;19913;-58
2022/08/13 09:35:39;;;;;;;;;;;;;;;26.26;45.10;101697.59;5047557;28;19920;-57
2022/08/13 09:38:07;;;;;;;;;;;;;;;26.29;45.17;101701.81;5048190;28;20445;-60
2022/08/13 09:40:34;;;;;;;;;;;;;;;26.33;45.08;101703.16;5025084;28;20824;-58
2022/08/13 09:43:02;;;;;;;;;;;;;;;26.37;44.93;101699.13;5042466;28;19927;-60
2022/08/13 09:45:29;;;;;;;;;;;;;;;26.42;44.95;101699.44;5046565;28;20399;-61
2022/08/13 09:47:55;;;;;;;;;;;;;;;26.47;44.65;101702.47;5050974;28;19924;-61
2022/08/13 09:50:21;;;;;;;;;;;;;;;26.51;44.73;101696.72;5042586;28;19921;-62
2022/08/13 09:52:47;;;;;;;;;;;;;;;26.56;44.66;101686.25;5028733;28;19923;-62
2022/08/13 09:55:19;;;;;;;;;;;;;;;26.61;44.78;101694.69;5047502;28;19975;-61
2022/08/13 09:58:04;;;;;;;;;;;;;;;26.66;44.75;101681.53;5046502;28;19927;-62
2022/08/13 10:00:31;;;;;;;;;;;;;;;26.72;44.95;101690.78;5044957;28;19921;-60
2022/08/13 10:02:59;;;;;;;;;;;;;;;26.73;44.68;101687.91;5049298;28;19967;-59
2022/08/13 10:05:25;;;;;;;;;;;;;;;26.77;44.69;101683.84;5049138;28;19917;-61
2022/08/13 10:07:51;;;;;;;;;;;;;;;26.83;44.54;101676.94;5052257;28;19958;-62
2022/08/13 10:10:16;;;;;;;;;;;;;;;26.89;44.65;101686.19;5043050;28;19952;-56
2022/08/13 10:12:42;;;;;;;;;;;;;;;26.93;44.46;101684.84;5040498;28;19921;-57
2022/08/13 10:15:08;;;;;;;;;;;;;;;26.97;44.52;101677.22;5045841;28;19920;-59
2022/08/13 10:17:45;;;;;;;;;;;;;;;26.98;44.25;101674.38;5044615;28;21003;-60
2022/08/13 10:20:10;;;;;;;;;;;;;;;27.02;44.25;101669.44;5043630;28;20050;-60
2022/08/13 10:22:36;;;;;;;;;;;;;;;27.04;44.40;101665.53;5043616;28;20003;-56
2022/08/13 10:25:01;;;;;;;;;;;;;;;27.13;44.23;101665.53;5040627;28;19917;-58
2022/08/13 10:27:26;;;;;;;;;;;;;;;27.20;44.06;101656.53;5044604;28;19924;-60
2022/08/13 10:29:51;;;;;;;;;;;;;;;27.29;43.62;101660.03;5042363;28;19925;-60
2022/08/13 10:32:17;;;;;;;;;;;;;;;27.35;43.89;101659.31;5045225;28;20400;-57
2022/08/13 10:34:44;;;;;;;;;;;;;;;27.41;43.69;101657.75;5041755;28;19917;-59
2022/08/13 10:37:09;;;;;;;;;;;;;;;27.44;43.37;101649.28;5045562;28;19923;-59
2022/08/13 10:39:34;;;;;;;;;;;;;;;27.48;43.30;101653.34;5045019;28;19917;-60
2022/08/13 10:42:00;;;;;;;;;;;;;;;27.49;43.66;101646.94;5040601;28;19917;-62
2022/08/13 10:44:25;;;;;;;;;;;;;;;27.48;43.75;101647.94;5042517;28;19959;-62
2022/08/13 10:46:51;;;;;;;;;;;;;;;27.51;43.67;101646.75;5029335;28;19967;-58
2022/08/13 10:49:16;;;;;;;;;;;;;;;27.53;43.67;101644.72;5043101;28;19925;-60
2022/08/13 10:51:41;;;;;;;;;;;;;;;27.52;43.70;101641.19;5040535;28;20368;-58
2022/08/13 10:54:07;;;;;;;;;;;;;;;27.53;43.50;101647.41;5048624;28;19932;-59
2022/08/13 10:56:32;;;;;;;;;;;;;;;27.53;43.78;101647.41;5038208;28;19920;-59
2022/08/13 10:59:00;;;;;;;;;;;;;;;27.54;43.69;101646.38;5049411;28;20272;-59
2022/08/13 11:01:26;;;;;;;;;;;;;;;27.55;43.44;101648.06;5043379;28;19927;-60
2022/08/13 11:03:57;;;;;;;;;;;;;;;27.57;43.71;101645.19;5046947;28;19956;-59
2022/08/13 11:06:25;;;;;;;;;;;;;;;27.60;43.62;101639.41;5043201;28;20011;-62
2022/08/13 11:08:54;;;;;;;;;;;;;;;27.60;43.30;101642.97;5042412;28;19921;-62
2022/08/13 11:11:20;;;;;;;;;;;;;;;27.59;43.35;101637.75;5041179;28;19968;-60
2022/08/13 11:13:45;;;;;;;;;;;;;;;27.58;43.60;101636.06;5040148;28;19952;-60
2022/08/13 11:18:55;;;;;;;;;;;;;;;27.56;43.39;101630.84;5040969;28;20593;-61
2022/08/13 11:21:21;;;;;;;;;;;;;;;27.56;43.67;101628.13;5034108;28;20444;-63
2022/08/13 11:23:46;;;;;;;;;;;;;;;27.55;43.66;101623.75;5045491;28;19986;-60
2022/08/13 11:26:12;;;;;;;;;;;;;;;27.54;43.45;101625.59;5037889;28;19916;-63
2022/08/13 11:28:37;;;;;;;;;;;;;;;27.55;43.44;101618.34;5036746;28;19927;-59
2022/08/13 11:31:02;;;;;;;;;;;;;;;27.57;43.75;101626.25;5031036;28;20408;-60
2022/08/13 11:33:28;;;;;;;;;;;;;;;27.58;43.61;101620.69;5043611;28;20011;-60
2022/08/13 11:35:53;;;;;;;;;;;;;;;27.61;43.69;101625.72;5044394;28;19948;-56
2022/08/13 11:38:20;;;;;;;;;;;;;;;27.61;43.71;101620.31;5041618;28;20338;-57
2022/08/13 11:40:49;;;;;;;;;;;;;;;27.64;43.60;101616.44;5036546;28;20361;-58
2022/08/13 11:43:14;;;;;;;;;;;;;;;27.69;43.29;101612.16;5038116;28;19963;-58
2022/08/13 11:45:40;;;;;;;;;;;;;;;27.73;43.59;101609.09;5036978;28;19917;-61
2022/08/13 11:48:05;;;;;;;;;;;;;;;27.74;43.61;101608.06;5041681;28;19921;-61
2022/08/13 11:50:31;;;;;;;;;;;;;;;27.76;43.52;101603.28;5040914;28;19917;-61
2022/08/13 11:52:56;;;;;;;;;;;;;;;27.79;43.13;101600.22;5030061;28;19921;-61
2022/08/13 11:55:21;;;;;;;;;;;;;;;27.82;43.46;101605.28;5035903;28;19928;-57
2022/08/13 11:57:47;;;;;;;;;;;;;;;27.88;43.25;101607.28;5040283;28;19952;-57
2022/08/13 12:00:14;;;;;;;;;;;;;;;27.94;43.03;101609.22;5035746;28;20380;-56
2022/08/13 12:02:40;;;;;;;;;;;;;;;28.03;42.73;101612.69;5035699;28;19970;-57
2022/08/13 12:05:05;;;;;;;;;;;;;;;28.08;42.43;101610.28;5040260;28;20303;-57
2022/08/13 12:07:31;;;;;;;;;;;;;;;28.17;42.43;101600.25;5050104;28;19920;-59
2022/08/13 12:09:56;;;;;;;;;;;;;;;28.26;41.73;101599.13;5048581;28;20457;-58
2022/08/13 12:12:22;;;;;;;;;;;;;;;28.38;41.63;101595.97;5041045;28;19923;-62
2022/08/13 12:14:47;;;;;;;;;;;;;;;28.47;41.31;101592.16;5040067;28;20261;-59
2022/08/13 12:17:12;;;;;;;;;;;;;;;28.57;41.52;101591.88;5044335;28;19921;-62
2022/08/13 12:19:38;;;;;;;;;;;;;;;28.64;41.47;101597.38;5035833;28;19929;-60
2022/08/13 12:22:03;;;;;;;;;;;;;;;28.69;41.02;101589.50;5039072;28;20340;-63
2022/08/13 12:24:28;;;;;;;;;;;;;;;28.74;41.01;101596.06;5042653;28;19921;-62
2022/08/13 12:26:54;;;;;;;;;;;;;;;28.83;40.78;101591.38;5045880;28;19924;-60
2022/08/13 12:29:19;;;;;;;;;;;;;;;28.89;40.26;101579.78;5043918;28;19932;-62
2022/08/13 12:31:44;;;;;;;;;;;;;;;28.96;40.42;101589.88;5036499;28;19928;-58
2022/08/13 12:34:10;;;;;;;;;;;;;;;28.97;40.20;101575.28;5044831;28;19921;-55
2022/08/13 12:36:35;;;;;;;;;;;;;;;29.00;40.18;101578.47;5041781;28;19924;-57
2022/08/13 12:39:00;;;;;;;;;;;;;;;29.03;39.67;101569.09;5042355;28;20377;-59
2022/08/13 12:41:27;;;;;;;;;;;;;;;29.08;39.67;101568.53;5049311;28;20374;-56
2022/08/13 12:43:52;;;;;;;;;;;;;;;29.11;39.47;101566.28;5028771;28;20396;-57
2022/08/13 12:46:17;;;;;;;;;;;;;;;29.11;39.57;101569.00;5039193;28;19979;-55
2022/08/13 12:48:42;;;;;;;;;;;;;;;29.11;39.32;101566.28;5047010;28;19925;-61
2022/08/13 12:51:08;;;;;;;;;;;;;;;29.09;39.15;101562.94;5050849;28;19917;-58